Time;durP1;ratioP1;P1;durP2;ratioP2;P2;SDS_P1;SDS_P2;PMS_P1;PMS_P2;Temp;Humidity;BMP_temperature;BMP_pressure;BME280_temperature;BME280_humidity;BME280_pressure;Samples;Min_cycle;Max_cycle;Signal;HPM_P1;HPM_P2
2024/02/14 00:00:00;;;;;;;7.95;1.80;;;10.20;99.90;;;;;;5105416;28;20055;-50
2024/02/14 00:02:26;;;;;;;8.90;2.38;;;10.20;99.90;;;;;;5104264;28;20090;-49
2024/02/14 00:04:53;;;;;;;10.45;2.83;;;10.20;99.90;;;;;;5105594;28;20028;-47
2024/02/14 00:07:19;;;;;;;6.55;2.00;;;10.30;99.90;;;;;;5104071;28;20331;-49
2024/02/14 00:09:45;;;;;;;7.47;2.10;;;10.30;99.90;;;;;;5105244;28;20100;-48
2024/02/14 00:12:11;;;;;;;6.75;1.77;;;10.40;99.90;;;;;;5105298;28;20016;-50
2024/02/14 00:14:37;;;;;;;7.75;2.20;;;10.40;99.90;;;;;;5105466;28;20024;-48
2024/02/14 00:17:03;;;;;;;8.82;2.58;;;10.40;99.90;;;;;;5103946;28;20351;-48
2024/02/14 00:19:29;;;;;;;6.93;1.67;;;10.50;99.90;;;;;;5103874;28;20028;-50
2024/02/14 00:21:55;;;;;;;6.97;2.03;;;10.40;99.90;;;;;;5104699;28;20040;-49
2024/02/14 00:24:20;;;;;;;10.07;1.95;;;10.40;99.90;;;;;;5108324;28;20066;-47
2024/02/14 00:26:46;;;;;;;9.50;2.10;;;10.50;99.90;;;;;;5111929;28;20028;-49
2024/02/14 00:29:12;;;;;;;8.60;1.63;;;10.40;99.90;;;;;;5111907;28;20083;-48
2024/02/14 00:31:37;;;;;;;9.95;2.20;;;10.50;99.90;;;;;;5111772;28;20036;-49
2024/02/14 00:34:04;;;;;;;9.85;2.42;;;10.50;99.90;;;;;;5093737;28;20020;-48
2024/02/14 00:36:30;;;;;;;6.68;2.20;;;10.50;99.90;;;;;;5111814;28;20143;-49
2024/02/14 00:38:56;;;;;;;8.80;1.95;;;10.50;99.90;;;;;;5111637;28;20035;-50
2024/02/14 00:41:21;;;;;;;8.55;2.13;;;10.50;99.90;;;;;;5111590;28;20273;-47
2024/02/14 00:43:47;;;;;;;8.50;1.85;;;10.60;99.90;;;;;;5111801;28;20218;-48
2024/02/14 00:46:17;;;;;;;12.25;3.13;;;10.50;99.90;;;;;;5111730;28;20038;-48
2024/02/14 00:48:44;;;;;;;;;;;10.60;99.90;;;;;;5111875;28;20031;-48
2024/02/14 00:51:10;;;;;;;7.13;2.45;;;10.60;99.90;;;;;;5111592;28;19908;-47
2024/02/14 00:53:35;;;;;;;5.25;1.80;;;10.60;99.90;;;;;;5110457;28;20051;-50
2024/02/14 00:56:01;;;;;;;3.47;1.33;;;10.60;99.90;;;;;;5111569;28;20083;-48
2024/02/14 00:58:26;;;;;;;7.88;1.95;;;10.60;99.90;;;;;;5111881;28;20031;-49
2024/02/14 01:00:52;;;;;;;4.90;1.35;;;10.60;99.90;;;;;;5111472;28;20163;-50
2024/02/14 01:03:18;;;;;;;5.80;1.90;;;10.60;99.90;;;;;;5111363;28;20075;-50
2024/02/14 01:05:43;;;;;;;2.72;1.33;;;10.60;99.90;;;;;;5111754;28;20047;-50
2024/02/14 01:08:09;;;;;;;7.57;2.75;;;10.60;99.90;;;;;;5111470;28;20036;-48
2024/02/14 01:10:35;;;;;;;7.78;2.25;;;10.60;99.90;;;;;;5111544;28;20024;-48
2024/02/14 01:13:01;;;;;;;6.75;2.03;;;10.60;99.90;;;;;;5111407;28;20217;-51
2024/02/14 01:15:26;;;;;;;8.50;2.83;;;10.60;99.90;;;;;;5111195;28;20028;-50
2024/02/14 01:17:52;;;;;;;4.63;2.13;;;10.70;99.90;;;;;;5110815;28;20060;-50
2024/02/14 01:20:18;;;;;;;3.75;1.10;;;10.70;99.90;;;;;;5110260;28;20091;-50
2024/02/14 01:22:46;;;;;;;10.75;2.83;;;10.70;99.90;;;;;;5110975;28;20051;-48
2024/02/14 01:25:12;;;;;;;6.75;2.42;;;10.70;99.90;;;;;;5111089;28;20036;-48
2024/02/14 01:27:37;;;;;;;9.05;2.47;;;10.70;99.90;;;;;;5111387;28;20183;-49
2024/02/14 01:30:05;;;;;;;10.27;3.83;;;10.70;99.90;;;;;;5110276;28;20041;-47
2024/02/14 01:32:31;;;;;;;7.93;3.13;;;10.80;99.90;;;;;;5111972;28;20039;-47
2024/02/14 01:34:57;;;;;;;5.18;1.88;;;10.80;99.90;;;;;;5110770;28;20178;-48
2024/02/14 01:37:22;;;;;;;2.30;1.20;;;10.80;99.90;;;;;;5106679;28;20046;-46
2024/02/14 01:39:48;;;;;;;4.72;1.83;;;10.80;99.90;;;;;;5107490;28;20034;-47
2024/02/14 01:42:14;;;;;;;2.65;1.38;;;10.90;99.90;;;;;;5108073;28;20039;-47
2024/02/14 01:44:40;;;;;;;5.00;2.08;;;10.80;99.90;;;;;;5106845;28;20046;-47
2024/02/14 01:47:06;;;;;;;5.80;2.10;;;10.80;99.90;;;;;;5107755;28;20201;-49
2024/02/14 01:49:33;;;;;;;4.97;2.45;;;10.80;99.90;;;;;;5106685;28;20175;-48
2024/02/14 01:52:01;;;;;;;7.38;2.10;;;10.80;99.90;;;;;;5107327;28;20187;-50
2024/02/14 01:54:27;;;;;;;3.80;1.67;;;10.80;99.90;;;;;;5107648;28;20062;-47
2024/02/14 01:56:53;;;;;;;4.80;1.05;;;10.80;99.90;;;;;;5106895;28;20229;-47
2024/02/14 01:59:19;;;;;;;5.18;2.40;;;10.80;99.90;;;;;;5106656;28;20032;-49
2024/02/14 02:01:44;;;;;;;9.90;3.17;;;10.80;99.90;;;;;;5106374;28;20067;-49
2024/02/14 02:04:10;;;;;;;4.97;1.90;;;10.80;99.90;;;;;;5107568;28;20040;-50
2024/02/14 02:06:37;;;;;;;6.47;1.67;;;10.80;99.90;;;;;;5106424;28;20088;-50
2024/02/14 02:09:03;;;;;;;9.02;2.38;;;10.80;99.90;;;;;;5107605;28;20081;-50
2024/02/14 02:11:28;;;;;;;5.70;2.13;;;10.80;99.90;;;;;;5107084;28;20204;-49
2024/02/14 02:13:55;;;;;;;7.90;2.00;;;10.70;99.90;;;;;;5107456;28;20036;-49
2024/02/14 02:16:21;;;;;;;7.20;1.85;;;10.70;99.90;;;;;;5106102;28;20024;-49
2024/02/14 02:18:48;;;;;;;9.75;2.05;;;10.70;99.90;;;;;;5106691;28;20055;-50
2024/02/14 02:21:14;;;;;;;6.35;2.30;;;10.80;99.90;;;;;;5107019;28;20058;-50
2024/02/14 02:23:43;;;;;;;5.28;1.63;;;10.70;99.90;;;;;;5106710;28;20281;-50
2024/02/14 02:26:11;;;;;;;10.55;1.75;;;10.70;99.90;;;;;;5107040;28;20036;-49
2024/02/14 02:28:36;;;;;;;14.35;1.98;;;10.70;99.90;;;;;;5107144;28;20059;-49
2024/02/14 02:31:02;;;;;;;23.15;2.67;;;10.70;99.90;;;;;;5106983;28;20031;-50
2024/02/14 02:33:28;;;;;;;31.02;3.53;;;10.70;99.90;;;;;;5105933;28;20095;-48
2024/02/14 02:35:53;;;;;;;7.70;2.20;;;10.70;99.90;;;;;;5105844;28;20103;-49
2024/02/14 02:38:21;;;;;;;10.27;2.17;;;10.60;99.90;;;;;;5105759;28;20024;-49
2024/02/14 02:40:47;;;;;;;5.85;1.70;;;10.60;99.90;;;;;;5106489;28;20039;-49
2024/02/14 02:43:13;;;;;;;7.53;1.90;;;10.60;99.90;;;;;;5106637;28;20039;-48
2024/02/14 02:45:39;;;;;;;12.15;2.40;;;10.60;99.90;;;;;;5106780;28;20031;-47
2024/02/14 02:48:05;;;;;;;8.65;2.38;;;10.60;99.90;;;;;;5105566;28;20083;-48
2024/02/14 02:50:30;;;;;;;11.52;2.08;;;10.60;99.90;;;;;;5106675;28;20052;-49
2024/02/14 02:52:57;;;;;;;8.13;1.88;;;10.60;99.90;;;;;;5106345;28;20058;-47
2024/02/14 02:55:23;;;;;;;14.23;2.33;;;10.60;99.90;;;;;;5106523;28;20095;-48
2024/02/14 02:57:48;;;;;;;9.73;1.85;;;10.60;99.90;;;;;;5106599;28;20190;-50
2024/02/14 03:00:15;;;;;;;6.90;1.73;;;10.60;99.90;;;;;;5105479;28;20024;-50
2024/02/14 03:02:44;;;;;;;10.20;2.10;;;10.60;99.90;;;;;;5106572;28;20024;-50
2024/02/14 03:05:10;;;;;;;11.13;1.92;;;10.60;99.90;;;;;;5105269;28;20032;-50
2024/02/14 03:07:37;;;;;;;10.93;2.13;;;10.60;99.90;;;;;;5106341;28;20213;-49
2024/02/14 03:10:03;;;;;;;11.50;2.00;;;10.60;99.90;;;;;;5106268;28;20028;-49
2024/02/14 03:12:30;;;;;;;7.65;1.63;;;10.60;99.90;;;;;;5106270;28;20087;-49
2024/02/14 03:14:58;;;;;;;11.25;2.20;;;10.60;99.90;;;;;;5105279;28;20052;-50
2024/02/14 03:17:23;;;;;;;6.47;1.40;;;10.60;99.90;;;;;;5104791;28;20089;-50
2024/02/14 03:19:51;;;;;;;8.98;1.50;;;10.60;99.90;;;;;;5106075;28;20047;-50
2024/02/14 03:22:18;;;;;;;11.38;2.05;;;10.60;99.90;;;;;;5106074;28;20043;-50
2024/02/14 03:24:46;;;;;;;3.58;1.27;;;10.60;99.90;;;;;;5105640;28;20119;-49
2024/02/14 03:27:12;;;;;;;10.77;1.90;;;10.60;99.90;;;;;;5105775;28;20039;-49
2024/02/14 03:29:38;;;;;;;34.25;2.80;;;10.60;99.90;;;;;;5104847;28;20020;-49
2024/02/14 03:32:05;;;;;;;13.93;2.10;;;10.60;99.90;;;;;;5104889;28;20024;-49
2024/02/14 03:34:33;;;;;;;13.32;2.13;;;10.60;99.90;;;;;;5105928;28;20035;-48
2024/02/14 03:37:01;;;;;;;13.85;2.28;;;10.60;99.90;;;;;;5105726;28;20054;-47
2024/02/14 03:39:26;;;;;;;10.40;1.90;;;10.60;99.90;;;;;;5105545;28;20289;-48
2024/02/14 03:41:54;;;;;;;9.52;2.05;;;10.60;99.90;;;;;;5105605;28;20043;-49
2024/02/14 03:44:19;;;;;;;11.07;1.95;;;10.70;99.90;;;;;;5104673;28;20289;-47
2024/02/14 03:46:47;;;;;;;9.82;1.92;;;10.60;99.90;;;;;;5105332;28;20093;-49
2024/02/14 03:49:13;;;;;;;9.10;1.98;;;10.60;99.90;;;;;;5105435;28;20024;-48
2024/02/14 03:51:38;;;;;;;13.10;2.00;;;10.60;99.90;;;;;;5104473;28;20084;-47
2024/02/14 03:54:05;;;;;;;7.65;1.80;;;10.60;99.90;;;;;;5105524;28;20028;-49
2024/02/14 03:56:32;;;;;;;9.40;2.00;;;10.60;99.90;;;;;;5105524;28;20040;-50
2024/02/14 03:58:59;;;;;;;9.40;1.80;;;10.60;99.90;;;;;;5087308;28;20024;-49
2024/02/14 04:01:24;;;;;;;19.17;3.05;;;10.60;99.90;;;;;;5105534;28;20094;-47
2024/02/14 04:03:50;;;;;;;13.30;2.63;;;10.60;99.90;;;;;;5105351;28;20091;-50
2024/02/14 04:06:16;;;;;;;16.20;2.67;;;10.60;99.90;;;;;;5105471;28;20295;-49
2024/02/14 04:08:42;;;;;;;15.27;2.45;;;10.60;99.90;;;;;;5105358;28;20032;-48
2024/02/14 04:11:07;;;;;;;26.30;3.45;;;10.60;99.90;;;;;;5105291;28;20051;-50
2024/02/14 04:13:33;;;;;;;14.73;2.90;;;10.60;99.90;;;;;;5104329;28;20034;-50
2024/02/14 04:15:59;;;;;;;23.48;2.72;;;10.60;99.90;;;;;;5105503;28;20066;-50
2024/02/14 04:18:24;;;;;;;12.45;2.58;;;10.60;99.90;;;;;;5104774;28;20052;-50
2024/02/14 04:20:51;;;;;;;16.67;2.85;;;10.60;99.90;;;;;;5104761;28;20038;-49
2024/02/14 04:23:16;;;;;;;16.67;3.70;;;10.60;99.90;;;;;;5104181;28;20132;-46
2024/02/14 04:25:42;;;;;;;20.88;3.42;;;10.60;99.90;;;;;;5105164;28;20016;-49
2024/02/14 04:28:07;;;;;;;17.30;2.50;;;10.60;99.90;;;;;;5105205;28;20023;-49
2024/02/14 04:30:33;;;;;;;19.38;2.58;;;10.60;99.90;;;;;;5104288;28;20201;-49
2024/02/14 04:32:59;;;;;;;18.00;3.40;;;10.60;99.90;;;;;;5104851;28;20107;-49
2024/02/14 04:35:25;;;;;;;10.45;2.10;;;10.60;99.90;;;;;;5104658;28;20028;-49
2024/02/14 04:37:52;;;;;;;14.00;2.70;;;10.60;99.90;;;;;;5105168;28;20197;-48
2024/02/14 04:40:18;;;;;;;19.52;3.17;;;10.60;99.90;;;;;;5104939;28;20024;-47
2024/02/14 04:42:44;;;;;;;8.70;2.33;;;10.60;99.90;;;;;;5104724;28;20024;-50
2024/02/14 04:45:09;;;;;;;9.40;2.75;;;10.70;99.90;;;;;;5104699;28;20035;-47
2024/02/14 04:47:35;;;;;;;12.63;2.65;;;10.70;99.90;;;;;;5104825;28;20016;-49
2024/02/14 04:50:03;;;;;;;13.98;3.45;;;10.70;99.90;;;;;;5104609;28;20024;-46
2024/02/14 04:52:29;;;;;;;18.73;2.45;;;10.80;99.90;;;;;;5104946;28;20057;-47
2024/02/14 04:54:56;;;;;;;12.75;2.58;;;10.80;99.90;;;;;;5104960;28;20166;-47
2024/02/14 04:57:22;;;;;;;16.85;2.88;;;10.90;99.90;;;;;;5104691;28;20016;-46
2024/02/14 04:59:47;;;;;;;21.48;3.42;;;10.90;99.90;;;;;;5104833;28;20103;-49
2024/02/14 05:02:13;;;;;;;12.60;2.85;;;10.90;99.90;;;;;;5104745;28;20024;-46
2024/02/14 05:04:39;;;;;;;11.95;2.53;;;10.90;99.90;;;;;;5104944;28;20035;-49
2024/02/14 05:07:05;;;;;;;11.48;3.30;;;10.90;99.90;;;;;;5104526;28;20028;-48
2024/02/14 05:09:30;;;;;;;16.73;3.00;;;10.80;99.90;;;;;;5103686;28;20028;-49
2024/02/14 05:11:56;;;;;;;22.85;4.18;;;10.80;99.90;;;;;;5107327;28;20024;-46
2024/02/14 05:14:21;;;;;;;22.35;3.78;;;10.80;99.90;;;;;;5108624;28;20060;-49
2024/02/14 05:16:47;;;;;;;16.65;3.10;;;10.80;99.90;;;;;;5107352;28;20032;-48
2024/02/14 05:19:13;;;;;;;25.23;4.20;;;10.80;99.90;;;;;;5107195;28;20116;-50
2024/02/14 05:21:39;;;;;;;17.15;3.22;;;10.80;99.90;;;;;;5108327;28;20036;-46
2024/02/14 05:24:05;;;;;;;20.33;3.15;;;10.80;99.90;;;;;;5107237;28;20088;-48
2024/02/14 05:26:31;;;;;;;8.38;2.55;;;10.80;99.90;;;;;;5108512;28;20093;-49
2024/02/14 05:28:57;;;;;;;24.42;3.80;;;10.80;99.90;;;;;;5108226;28;20282;-50
2024/02/14 05:31:23;;;;;;;24.58;3.65;;;10.90;99.90;;;;;;5108239;28;20066;-47
2024/02/14 05:33:49;;;;;;;19.60;3.40;;;10.90;99.90;;;;;;5108200;28;20020;-49
2024/02/14 05:36:14;;;;;;;24.65;3.45;;;10.90;99.90;;;;;;5108298;28;20168;-47
2024/02/14 05:38:40;;;;;;;20.58;3.20;;;10.90;99.90;;;;;;5107665;28;20031;-49
2024/02/14 05:41:07;;;;;;;12.57;2.65;;;10.90;99.90;;;;;;5107757;28;20054;-47
2024/02/14 05:43:34;;;;;;;29.48;4.05;;;10.90;99.90;;;;;;5108133;28;20285;-49
2024/02/14 05:46:00;;;;;;;23.27;3.92;;;10.90;99.90;;;;;;5107836;28;20034;-49
2024/02/14 05:48:26;;;;;;;18.05;3.15;;;10.90;99.90;;;;;;5108044;28;20048;-50
2024/02/14 05:50:51;;;;;;;22.63;3.40;;;10.90;99.90;;;;;;5106992;28;20032;-49
2024/02/14 05:53:17;;;;;;;14.85;2.35;;;10.90;99.90;;;;;;5107549;28;20028;-47
2024/02/14 05:55:43;;;;;;;17.13;3.00;;;10.90;99.90;;;;;;5108049;28;20031;-47
2024/02/14 05:58:09;;;;;;;19.80;2.88;;;10.90;99.90;;;;;;5107746;28;20167;-46
2024/02/14 06:00:34;;;;;;;12.25;3.38;;;10.90;99.90;;;;;;5107623;28;20028;-47
2024/02/14 06:03:00;;;;;;;16.25;2.80;;;10.90;99.90;;;;;;5106796;28;20031;-46
2024/02/14 06:05:26;;;;;;;21.25;2.97;;;10.90;99.90;;;;;;5107597;28;20091;-49
2024/02/14 06:07:51;;;;;;;15.38;2.60;;;10.90;99.90;;;;;;5107554;28;20198;-47
2024/02/14 06:10:18;;;;;;;13.18;2.53;;;10.90;99.90;;;;;;5107132;28;20035;-47
2024/02/14 06:12:44;;;;;;;8.23;2.25;;;10.90;99.90;;;;;;5107051;28;20039;-48
2024/02/14 06:15:09;;;;;;;19.13;3.00;;;10.90;99.90;;;;;;5107301;28;20028;-48
2024/02/14 06:17:35;;;;;;;15.32;2.00;;;10.90;99.90;;;;;;5106239;28;20051;-49
2024/02/14 06:20:05;;;;;;;12.57;2.55;;;11.00;99.90;;;;;;5107269;28;20185;-47
2024/02/14 06:22:32;;;;;;;9.73;1.90;;;11.00;99.90;;;;;;5141111;22;20041;-45
2024/02/14 06:24:58;;;;;;;14.95;2.45;;;11.00;99.90;;;;;;5087274;28;20087;-47
2024/02/14 06:27:24;;;;;;;16.55;3.45;;;11.00;99.90;;;;;;5087012;28;20028;-45
2024/02/14 06:29:49;;;;;;;14.18;3.00;;;11.00;99.90;;;;;;5087011;28;20032;-46
2024/02/14 06:32:15;;;;;;;14.57;2.30;;;11.10;99.90;;;;;;5085814;28;20028;-46
2024/02/14 06:34:40;;;;;;;17.92;2.90;;;11.00;99.90;;;;;;5087617;28;20040;-46
2024/02/14 06:37:06;;;;;;;10.85;3.08;;;11.10;99.90;;;;;;5086719;28;20296;-46
2024/02/14 06:39:32;;;;;;;25.45;3.92;;;11.00;99.90;;;;;;5086953;28;20032;-46
2024/02/14 06:41:57;;;;;;;17.52;4.03;;;11.10;99.90;;;;;;5086822;28;20036;-45
2024/02/14 06:44:26;;;;;;;11.80;3.28;;;11.10;99.90;;;;;;5086983;28;20017;-45
2024/02/14 06:46:52;;;;;;;15.23;3.10;;;11.10;99.90;;;;;;5086799;28;20108;-47
2024/02/14 06:49:17;;;;;;;19.70;3.03;;;11.10;99.90;;;;;;5086427;28;20028;-45
2024/02/14 06:51:43;;;;;;;10.88;2.95;;;11.10;99.90;;;;;;5086291;28;20278;-45
2024/02/14 06:54:09;;;;;;;10.00;3.22;;;11.10;99.90;;;;;;5086585;28;20088;-46
2024/02/14 06:56:35;;;;;;;13.02;3.65;;;11.20;99.90;;;;;;5086499;28;20068;-47
2024/02/14 06:59:02;;;;;;;12.57;3.05;;;11.10;99.90;;;;;;5086125;28;20025;-46
2024/02/14 07:01:28;;;;;;;12.10;2.33;;;11.10;99.90;;;;;;5086378;28;20047;-45
2024/02/14 07:03:54;;;;;;;13.52;2.75;;;11.20;99.90;;;;;;5086529;28;20043;-47
2024/02/14 07:06:19;;;;;;;11.32;2.47;;;11.20;99.90;;;;;;5086298;28;20173;-45
2024/02/14 07:08:45;;;;;;;11.98;2.33;;;11.10;99.90;;;;;;5085211;28;20047;-46
2024/02/14 07:11:11;;;;;;;11.80;2.78;;;11.10;99.90;;;;;;5085994;28;20181;-45
2024/02/14 07:13:37;;;;;;;11.85;1.75;;;11.10;99.90;;;;;;5086342;28;20102;-48
2024/02/14 07:16:02;;;;;;;10.43;2.33;;;11.20;99.90;;;;;;5086178;28;20070;-47
2024/02/14 07:18:28;;;;;;;15.15;4.72;;;11.20;99.90;;;;;;5086137;28;20040;-46
2024/02/14 07:20:54;;;;;;;11.27;2.40;;;11.20;99.90;;;;;;5085672;28;20064;-48
2024/02/14 07:23:20;;;;;;;6.68;2.08;;;11.10;99.90;;;;;;5085634;28;20078;-46
2024/02/14 07:25:46;;;;;;;9.82;2.90;;;11.20;99.90;;;;;;5086106;28;20025;-46
2024/02/14 07:28:11;;;;;;;12.38;2.78;;;11.10;99.90;;;;;;5085898;28;20109;-47
2024/02/14 07:30:37;;;;;;;12.57;2.67;;;11.10;99.90;;;;;;5085802;28;20111;-47
2024/02/14 07:33:03;;;;;;;13.40;2.72;;;11.20;99.90;;;;;;5085088;28;20032;-48
2024/02/14 07:35:29;;;;;;;13.70;3.13;;;11.10;99.90;;;;;;5085316;28;20218;-50
2024/02/14 07:37:55;;;;;;;10.65;2.45;;;11.10;99.90;;;;;;5085565;28;20024;-46
2024/02/14 07:40:21;;;;;;;9.50;1.90;;;11.10;99.90;;;;;;5085339;28;20043;-48
2024/02/14 07:42:47;;;;;;;11.48;2.30;;;11.20;99.90;;;;;;5085068;28;20101;-48
2024/02/14 07:45:13;;;;;;;10.02;2.22;;;11.20;99.90;;;;;;5085516;28;20273;-48
2024/02/14 07:47:40;;;;;;;10.27;1.95;;;11.20;99.90;;;;;;5085199;28;20024;-46
2024/02/14 07:50:09;;;;;;;10.77;2.95;;;11.20;99.90;;;;;;5085638;28;20035;-45
2024/02/14 07:52:36;;;;;;;11.10;3.07;;;11.20;99.90;;;;;;5085365;28;20024;-48
2024/02/14 07:55:01;;;;;;;17.58;3.03;;;11.20;99.90;;;;;;5085342;28;20212;-47
2024/02/14 07:57:27;;;;;;;11.70;3.15;;;11.20;99.90;;;;;;5085264;28;20017;-50
2024/02/14 07:59:53;;;;;;;13.57;3.47;;;11.30;99.90;;;;;;5085394;28;20169;-47
2024/02/14 08:02:19;;;;;;;9.85;2.75;;;11.20;99.90;;;;;;5085326;28;20036;-49
2024/02/14 08:04:45;;;;;;;9.45;2.92;;;11.30;99.90;;;;;;5084064;28;20029;-49
2024/02/14 08:07:11;;;;;;;7.95;2.95;;;11.20;99.90;;;;;;5084808;28;20265;-47
2024/02/14 08:09:38;;;;;;;9.20;1.83;;;11.20;99.90;;;;;;5084119;28;20032;-49
2024/02/14 08:12:04;;;;;;;5.95;2.38;;;11.20;99.90;;;;;;5085237;28;20036;-48
2024/02/14 08:14:30;;;;;;;9.85;2.97;;;11.20;99.90;;;;;;5085418;28;20097;-46
2024/02/14 08:16:55;;;;;;;10.43;3.08;;;11.20;99.90;;;;;;5085020;28;20150;-49
2024/02/14 08:19:21;;;;;;;8.95;2.45;;;11.20;99.90;;;;;;5085129;28;20041;-49
2024/02/14 08:21:47;;;;;;;8.70;2.63;;;11.20;99.90;;;;;;5067199;28;20040;-49
2024/02/14 08:24:12;;;;;;;7.80;2.42;;;11.20;99.90;;;;;;5084619;28;20048;-50
2024/02/14 08:26:38;;;;;;;10.90;3.15;;;11.20;99.90;;;;;;5085000;28;20033;-47
2024/02/14 08:29:04;;;;;;;8.50;2.90;;;11.20;99.90;;;;;;5084793;28;20070;-49
2024/02/14 08:31:30;;;;;;;8.18;2.63;;;11.20;99.90;;;;;;5084970;28;20200;-45
2024/02/14 08:33:56;;;;;;;6.32;2.75;;;11.30;99.90;;;;;;5083937;28;20222;-49
2024/02/14 08:36:22;;;;;;;5.97;1.88;;;11.20;99.90;;;;;;5085060;28;20034;-47
2024/02/14 08:38:47;;;;;;;8.73;2.70;;;11.30;99.90;;;;;;5084757;28;20099;-46
2024/02/14 08:41:14;;;;;;;7.55;2.38;;;11.30;99.90;;;;;;5084754;28;20032;-46
2024/02/14 08:43:39;;;;;;;7.03;2.40;;;11.30;99.90;;;;;;5084905;28;20024;-47
2024/02/14 08:46:10;;;;;;;7.78;3.35;;;11.30;99.90;;;;;;5087910;28;20039;-46
2024/02/14 08:48:35;;;;;;;7.70;2.65;;;11.30;99.90;;;;;;5089134;28;20031;-47
2024/02/14 08:51:01;;;;;;;8.65;2.53;;;11.30;99.90;;;;;;5088923;28;20048;-46
2024/02/14 08:53:27;;;;;;;6.63;2.05;;;11.30;99.90;;;;;;5088697;28;20308;-48
2024/02/14 08:55:52;;;;;;;11.90;4.35;;;11.40;99.90;;;;;;5088642;28;20193;-46
2024/02/14 08:58:18;;;;;;;6.15;1.67;;;11.40;99.90;;;;;;5089099;28;20029;-47
2024/02/14 09:00:44;;;;;;;9.77;2.58;;;11.40;99.90;;;;;;5088497;28;20358;-45
2024/02/14 09:03:09;;;;;;;10.25;2.80;;;11.40;99.90;;;;;;5088592;28;20069;-49
2024/02/14 09:05:37;;;;;;;8.00;2.13;;;11.40;99.90;;;;;;5088586;28;20094;-49
2024/02/14 09:08:03;;;;;;;9.88;3.35;;;11.50;99.90;;;;;;5087482;28;20028;-48
2024/02/14 09:10:28;;;;;;;8.65;3.38;;;11.50;99.90;;;;;;5088629;28;20083;-48
2024/02/14 09:12:54;;;;;;;12.80;3.45;;;11.50;99.90;;;;;;5088589;28;20096;-48
2024/02/14 09:15:21;;;;;;;9.18;2.30;;;11.50;99.90;;;;;;5088382;28;20036;-49
2024/02/14 09:17:46;;;;;;;8.45;2.40;;;11.50;99.90;;;;;;5070608;28;20036;-49
2024/02/14 09:20:13;;;;;;;12.57;3.38;;;11.50;99.90;;;;;;5088399;28;20226;-49
2024/02/14 09:22:41;;;;;;;17.85;3.42;;;11.40;99.90;;;;;;5088064;28;20041;-46
2024/02/14 09:25:09;;;;;;;9.70;2.80;;;11.40;99.90;;;;;;5088184;28;20025;-48
2024/02/14 09:27:35;;;;;;;11.65;4.25;;;11.40;99.90;;;;;;5087939;28;20073;-46
2024/02/14 09:30:03;;;;;;;16.27;3.60;;;11.40;99.90;;;;;;5088215;28;20040;-49
2024/02/14 09:32:30;;;;;;;15.07;3.08;;;11.40;99.90;;;;;;5088204;28;20114;-49
2024/02/14 09:34:56;;;;;;;10.68;2.53;;;11.30;99.90;;;;;;5088272;28;20052;-49
2024/02/14 09:37:23;;;;;;;11.48;3.10;;;11.30;99.90;;;;;;5088320;28;20043;-49
2024/02/14 09:39:49;;;;;;;18.58;3.83;;;11.40;99.90;;;;;;5088117;28;20074;-49
2024/02/14 09:42:16;;;;;;;18.30;3.95;;;11.30;99.90;;;;;;5088065;28;20028;-47
2024/02/14 09:44:42;;;;;;;20.10;3.65;;;11.30;99.90;;;;;;5088002;28;20234;-49
2024/02/14 09:47:07;;;;;;;15.88;3.78;;;11.30;99.90;;;;;;5070210;28;20028;-45
2024/02/14 09:49:34;;;;;;;23.85;4.82;;;11.30;99.90;;;;;;5086702;28;20047;-48
2024/02/14 09:52:04;;;;;;;19.95;3.65;;;11.30;99.90;;;;;;5086654;28;20339;-45
2024/02/14 09:54:30;;;;;;;31.13;4.05;;;11.30;99.90;;;;;;5086709;28;20043;-48
2024/02/14 09:56:57;;;;;;;22.05;4.43;;;11.30;99.90;;;;;;5085670;28;20036;-48
2024/02/14 09:59:23;;;;;;;22.58;4.53;;;11.30;99.90;;;;;;5086501;28;20032;-48
2024/02/14 10:01:50;;;;;;;29.70;5.25;;;11.30;99.90;;;;;;5069883;28;20032;-46
2024/02/14 10:04:17;;;;;;;26.50;4.95;;;11.40;99.90;;;;;;5086508;28;20112;-48
2024/02/14 10:06:43;;;;;;;19.58;4.20;;;11.40;99.90;;;;;;5086472;28;20223;-46
2024/02/14 10:09:10;;;;;;;21.25;3.38;;;11.40;99.90;;;;;;5087411;28;20020;-45
2024/02/14 10:11:36;;;;;;;24.00;3.30;;;11.30;99.90;;;;;;5087424;28;20179;-48
2024/02/14 10:14:03;;;;;;;15.30;3.38;;;11.30;99.90;;;;;;5087475;28;20043;-47
2024/02/14 10:16:29;;;;;;;32.20;5.43;;;11.40;99.90;;;;;;5086367;28;20095;-48
2024/02/14 10:18:56;;;;;;;35.78;4.78;;;11.40;99.90;;;;;;5087447;28;20028;-44
2024/02/14 10:21:21;;;;;;;25.90;4.50;;;11.40;99.90;;;;;;5086053;28;20055;-45
2024/02/14 10:23:49;;;;;;;26.63;5.18;;;11.40;99.90;;;;;;5087446;28;20032;-46
2024/02/14 10:26:15;;;;;;;17.13;3.95;;;11.40;99.90;;;;;;5087308;28;20020;-45
2024/02/14 10:28:44;;;;;;;32.35;6.07;;;11.40;99.90;;;;;;5087156;28;20239;-46
2024/02/14 10:31:13;;;;;;;30.73;5.60;;;11.40;99.90;;;;;;5087342;28;20177;-46
2024/02/14 10:33:38;;;;;;;23.98;4.55;;;11.30;99.90;;;;;;5087704;28;20293;-45
2024/02/14 10:36:07;;;;;;;36.08;5.32;;;11.40;99.90;;;;;;5087062;28;20083;-46
2024/02/14 10:38:33;;;;;;;23.25;4.22;;;11.30;99.90;;;;;;5086019;28;20083;-49
2024/02/14 10:41:00;;;;;;;33.97;6.38;;;11.30;99.90;;;;;;5085848;28;20051;-49
2024/02/14 10:43:26;;;;;;;38.20;6.18;;;11.40;99.90;;;;;;5086911;28;20021;-48
2024/02/14 10:45:56;;;;;;;34.88;5.28;;;11.30;99.90;;;;;;5085127;28;20085;-48
2024/02/14 10:48:24;;;;;;;32.40;5.30;;;11.40;99.90;;;;;;5085433;28;20095;-46
2024/02/14 10:50:50;;;;;;;28.50;5.70;;;11.40;99.90;;;;;;5086212;28;20292;-50
2024/02/14 10:53:16;;;;;;;41.58;6.18;;;11.40;99.90;;;;;;5085647;28;20032;-48
2024/02/14 10:55:42;;;;;;;33.28;5.07;;;11.40;99.90;;;;;;5086605;28;20044;-49
2024/02/14 10:58:08;;;;;;;37.25;6.47;;;11.40;99.90;;;;;;5085694;28;20038;-48
2024/02/14 11:00:33;;;;;;;40.47;7.78;;;11.40;99.90;;;;;;5086482;28;20254;-49
2024/02/14 11:03:00;;;;;;;42.65;6.90;;;11.50;99.90;;;;;;5085502;28;20141;-49
2024/02/14 11:05:26;;;;;;;48.00;7.43;;;11.50;99.90;;;;;;5086630;28;20025;-46
2024/02/14 11:07:52;;;;;;;51.55;6.22;;;11.50;99.90;;;;;;5085906;28;20029;-46
2024/02/14 11:10:17;;;;;;;45.08;7.38;;;11.50;99.90;;;;;;5086359;28;20060;-46
2024/02/14 11:12:44;;;;;;;60.78;9.15;;;11.50;99.90;;;;;;5086158;28;20025;-48
2024/02/14 11:15:19;;;;;;;60.58;8.02;;;11.50;99.90;;;;;;5085920;28;20300;-49
2024/02/14 11:17:46;;;;;;;51.25;7.60;;;11.50;99.90;;;;;;5085455;28;20032;-48
2024/02/14 11:20:32;;;;;;;56.15;7.53;;;11.50;99.90;;;;;;5085659;28;20039;-49
2024/02/14 11:23:04;;;;;;;44.20;5.85;;;11.50;99.90;;;;;;5085856;28;20056;-49
2024/02/14 11:25:31;;;;;;;43.38;7.82;;;11.50;99.90;;;;;;5086029;28;20025;-48
2024/02/14 11:28:02;;;;;;;40.55;6.78;;;11.50;99.90;;;;;;5085968;28;20036;-49
2024/02/14 11:30:31;;;;;;;70.65;9.90;;;11.40;99.90;;;;;;5086090;28;20034;-49
2024/02/14 11:33:15;;;;;;;55.35;7.45;;;11.40;99.90;;;;;;5085810;28;20036;-49
2024/02/14 11:35:41;;;;;;;51.42;8.55;;;11.40;99.90;;;;;;5086337;28;20225;-48
2024/02/14 11:38:07;;;;;;;70.45;10.10;;;11.30;99.90;;;;;;5085567;28;20212;-47
2024/02/14 11:40:33;;;;;;;39.83;9.25;;;11.30;99.90;;;;;;5085453;28;20092;-47
2024/02/14 11:42:59;;;;;;;91.38;34.17;;;11.30;99.90;;;;;;5085407;28;20116;-49
2024/02/14 11:45:25;;;;;;;94.05;24.55;;;11.40;99.90;;;;;;5085419;28;20034;-50
2024/02/14 11:47:50;;;;;;;96.82;29.88;;;11.40;99.90;;;;;;5085209;28;20024;-48
2024/02/14 11:50:18;;;;;;;53.67;11.02;;;11.40;99.90;;;;;;5083533;28;20039;-48
2024/02/14 11:52:44;;;;;;;71.05;15.15;;;11.40;99.90;;;;;;5084987;28;20241;-45
2024/02/14 11:55:10;;;;;;;79.20;17.15;;;11.40;99.90;;;;;;5085264;28;20161;-47
2024/02/14 11:57:38;;;;;;;67.32;14.15;;;11.40;99.90;;;;;;5085282;28;20158;-47
2024/02/14 12:00:04;;;;;;;63.28;14.25;;;11.40;99.90;;;;;;5085324;28;20289;-49
2024/02/14 12:02:30;;;;;;;62.03;10.98;;;11.50;99.90;;;;;;5084894;28;20032;-46
2024/02/14 12:04:56;;;;;;;56.28;9.95;;;11.40;99.90;;;;;;5083841;28;20033;-48
2024/02/14 12:07:22;;;;;;;61.08;11.57;;;11.50;99.90;;;;;;5084560;28;20020;-46
2024/02/14 12:09:48;;;;;;;58.05;9.18;;;11.50;99.90;;;;;;5085196;28;20072;-45
2024/02/14 12:12:15;;;;;;;53.45;10.10;;;11.40;99.90;;;;;;5084934;28;20052;-48
2024/02/14 12:14:43;;;;;;;62.97;12.70;;;11.40;99.90;;;;;;5084583;28;20032;-49
2024/02/14 12:17:09;;;;;;;60.88;8.70;;;11.50;99.90;;;;;;5083552;28;20031;-46
2024/02/14 12:19:37;;;;;;;58.67;10.10;;;11.50;99.90;;;;;;5083222;28;20032;-46
2024/02/14 12:22:11;;;;;;;52.63;9.10;;;11.50;99.90;;;;;;5083691;28;20256;-47
2024/02/14 12:24:37;;;;;;;63.08;11.43;;;11.50;99.90;;;;;;5084657;28;20082;-49
2024/02/14 12:27:04;;;;;;;58.65;8.23;;;11.50;99.90;;;;;;5084910;28;20024;-48
2024/02/14 12:29:30;;;;;;;48.00;8.45;;;11.50;99.90;;;;;;5083565;28;20024;-49
2024/02/14 12:32:08;;;;;;;46.67;8.65;;;11.50;99.90;;;;;;5084699;28;20033;-49
2024/02/14 12:34:35;;;;;;;55.47;11.27;;;11.50;99.90;;;;;;5084955;28;20021;-47